Time;durP1;ratioP1;P1;durP2;ratioP2;P2;SDS_P1;SDS_P2;PMS_P1;PMS_P2;Temp;Humidity;BMP_temperature;BMP_pressure;BME280_temperature;BME280_humidity;BME280_pressure;Samples;Min_cycle;Max_cycle;Signal;HPM_P1;HPM_P2
2022/07/06 00:00:43;;;;;;;5.10;4.90;;;;;;;13.26;78.16;102171.75;6016567;23;20467;-68
2022/07/06 00:03:09;;;;;;;4.70;4.50;;;;;;;13.28;78.14;102171.69;6020118;23;20011;-68
2022/07/06 00:05:36;;;;;;;5.75;5.53;;;;;;;13.21;77.82;102180.75;6024569;23;20317;-68
2022/07/06 00:08:03;;;;;;;4.80;4.60;;;;;;;13.23;78.19;102177.16;6013525;23;20027;-68
2022/07/06 00:10:29;;;;;;;6.43;6.13;;;;;;;13.09;78.04;102169.78;6044587;23;20026;-69
2022/07/06 00:12:56;;;;;;;4.90;4.70;;;;;;;13.17;78.04;102186.16;6046815;23;20015;-69
2022/07/06 00:15:23;;;;;;;6.15;5.85;;;;;;;13.02;78.13;102181.47;6052499;23;20019;-69
2022/07/06 00:17:49;;;;;;;4.60;4.40;;;;;;;13.09;77.93;102184.72;6049073;23;20046;-69
2022/07/06 00:20:16;;;;;;;4.70;4.50;;;;;;;12.87;78.50;102147.78;6027336;23;20050;-69
2022/07/06 00:22:43;;;;;;;4.80;4.60;;;;;;;12.95;78.95;102180.00;6024745;23;20097;-68
2022/07/06 00:25:09;;;;;;;4.82;4.63;;;;;;;12.96;79.03;102189.63;6025577;23;20039;-69
2022/07/06 00:27:35;;;;;;;5.45;5.25;;;;;;;12.88;79.74;102191.69;6023501;23;20402;-68
2022/07/06 00:30:02;;;;;;;4.60;4.40;;;;;;;12.37;80.39;102109.31;6003439;23;20519;-68
2022/07/06 00:32:28;;;;;;;6.40;6.10;;;;;;;12.57;80.40;102192.84;6023395;23;20019;-68
2022/07/06 00:34:55;;;;;;;4.70;4.50;;;;;;;12.02;81.19;102071.13;6032485;23;20105;-68
2022/07/06 00:37:21;;;;;;;5.43;5.20;;;;;;;12.58;81.81;102153.25;6027892;23;20010;-67
2022/07/06 00:39:48;;;;;;;4.80;4.60;;;;;;;12.57;81.57;102158.59;6038495;23;20093;-67
2022/07/06 00:42:14;;;;;;;4.72;4.53;;;;;;;12.57;82.08;102155.97;6018391;23;20014;-68
2022/07/06 00:44:41;;;;;;;5.18;4.97;;;;;;;12.34;82.31;102136.59;6032030;23;20019;-68
2022/07/06 00:47:07;;;;;;;4.70;4.50;;;;;;;12.56;82.55;102184.06;6000822;23;20082;-68
2022/07/06 00:52:19;;;;;;;5.13;4.93;;;;;;;12.26;81.78;102136.00;6026167;23;20274;-68
2022/07/06 00:54:46;;;;;;;4.80;4.60;;;;;;;12.45;82.46;102170.44;6026864;23;20019;-68
2022/07/06 00:57:13;;;;;;;4.70;4.50;;;;;;;12.39;83.33;102168.03;6020879;23;20046;-68
2022/07/06 00:59:39;;;;;;;5.13;4.93;;;;;;;12.11;84.37;102145.31;5997246;23;20464;-68
2022/07/06 01:02:06;;;;;;;4.40;4.20;;;;;;;11.96;84.71;102127.44;6025411;23;20021;-68
2022/07/06 01:04:32;;;;;;;6.05;5.75;;;;;;;12.20;84.80;102180.97;6022821;23;20038;-68
2022/07/06 01:07:00;;;;;;;4.70;4.50;;;;;;;12.17;85.20;102178.47;6021970;23;20019;-68
2022/07/06 01:09:27;;;;;;;5.65;5.45;;;;;;;12.12;84.86;102172.50;5998445;23;20015;-69
2022/07/06 01:11:53;;;;;;;4.60;4.40;;;;;;;12.12;84.20;102191.78;6007951;23;20026;-69
2022/07/06 01:14:20;;;;;;;4.85;4.65;;;;;;;11.75;84.84;102134.28;6025760;23;20094;-69
2022/07/06 01:16:47;;;;;;;4.78;4.57;;;;;;;12.06;85.74;102191.13;6028750;23;20314;-68
2022/07/06 01:19:14;;;;;;;4.47;4.28;;;;;;;11.98;86.63;102173.81;6025003;23;20050;-68
2022/07/06 01:21:41;;;;;;;4.80;4.60;;;;;;;11.95;86.10;102167.84;6022779;23;20010;-68
2022/07/06 01:24:08;;;;;;;5.10;4.90;;;;;;;11.93;86.53;102167.88;6018421;23;20042;-68
2022/07/06 01:26:34;;;;;;;6.43;6.13;;;;;;;11.72;86.18;102135.22;6023813;23;20513;-69
2022/07/06 01:29:01;;;;;;;4.88;4.68;;;;;;;11.97;86.08;102172.13;6002816;23;20015;-68
2022/07/06 01:31:27;;;;;;;6.57;6.28;;;;;;;11.65;86.94;102139.00;6023472;23;20037;-66
2022/07/06 01:33:56;;;;;;;4.65;4.45;;;;;;;11.83;87.61;102192.75;6003040;23;20445;-68
2022/07/06 01:36:23;;;;;;;4.60;4.40;;;;;;;11.77;88.06;102175.41;6015672;23;20023;-68
2022/07/06 01:38:56;;;;;;;4.43;4.22;;;;;;;11.44;88.10;102126.56;6012321;23;20410;-68
2022/07/06 01:41:23;;;;;;;6.03;5.72;;;;;;;11.40;89.46;102132.81;6012923;23;20035;-69
2022/07/06 01:43:49;;;;;;;4.68;4.47;;;;;;;10.56;90.26;102009.38;6009820;23;20325;-69
2022/07/06 01:46:16;;;;;;;4.55;4.35;;;;;;;11.04;90.74;102091.91;6024216;23;20021;-69
2022/07/06 01:48:43;;;;;;;4.70;4.50;;;;;;;11.24;90.05;102119.31;5993878;23;20900;-69
2022/07/06 01:51:11;;;;;;;4.65;4.40;;;;;;;11.55;91.15;102171.75;6027857;23;20377;-69
2022/07/06 01:53:38;;;;;;;5.32;5.13;;;;;;;11.36;90.73;102145.19;6018774;23;20150;-69
2022/07/06 01:56:05;;;;;;;4.55;4.35;;;;;;;11.53;90.89;102170.97;6023125;23;20032;-69
2022/07/06 01:58:31;;;;;;;6.25;5.95;;;;;;;11.22;90.53;102114.09;6020508;23;20035;-69
2022/07/06 02:00:58;;;;;;;4.70;4.50;;;;;;;11.50;90.68;102164.00;6021045;23;20037;-69
2022/07/06 02:03:24;;;;;;;6.00;5.70;;;;;;;11.47;90.80;102166.75;6025016;23;20022;-68
2022/07/06 02:05:51;;;;;;;4.50;4.30;;;;;;;11.27;91.00;102145.50;6014833;23;20083;-69
2022/07/06 02:08:17;;;;;;;4.60;4.40;;;;;;;11.38;91.21;102178.44;6027117;23;20046;-68
2022/07/06 02:10:44;;;;;;;4.72;4.53;;;;;;;11.15;92.97;102139.72;6021345;23;20031;-68
2022/07/06 02:13:10;;;;;;;4.40;4.20;;;;;;;11.30;92.73;102174.31;6024992;23;20074;-68
2022/07/06 02:15:37;;;;;;;5.55;5.35;;;;;;;11.07;93.29;102138.25;6028196;23;20090;-69
2022/07/06 02:18:03;;;;;;;4.70;4.50;;;;;;;11.26;93.39;102178.78;5996953;23;20023;-68
2022/07/06 02:20:30;;;;;;;6.30;6.00;;;;;;;11.17;92.92;102168.59;6017713;23;20037;-68
2022/07/06 02:22:56;;;;;;;4.70;4.50;;;;;;;11.23;93.20;102176.28;5995457;23;20131;-68
2022/07/06 02:25:23;;;;;;;5.00;4.80;;;;;;;11.05;93.12;102172.44;6026786;23;20037;-68
2022/07/06 02:27:49;;;;;;;4.50;4.30;;;;;;;11.04;93.08;102157.56;6029884;23;20349;-68
2022/07/06 02:30:16;;;;;;;4.60;4.40;;;;;;;11.12;93.18;102176.59;6025212;23;20100;-68
2022/07/06 02:32:42;;;;;;;4.60;4.40;;;;;;;10.04;93.79;102063.34;6022701;23;20407;-66
2022/07/06 02:35:09;;;;;;;4.40;4.20;;;;;;;10.83;95.00;102134.63;6026241;23;20038;-68
2022/07/06 02:37:35;;;;;;;19.38;18.40;;;;;;;10.42;94.64;102090.28;5986698;23;20795;-68
2022/07/06 02:40:03;;;;;;;4.40;4.20;;;;;;;10.86;95.13;102224.66;5930658;23;20019;-67
2022/07/06 02:42:30;;;;;;;5.70;5.45;;;;;;;10.88;95.08;102159.81;6021462;23;20021;-69
2022/07/06 02:44:56;;;;;;;4.60;4.40;;;;;;;9.88;95.57;102047.19;6024548;23;20011;-69
2022/07/06 02:47:23;;;;;;;5.53;5.32;;;;;;;10.52;96.34;102118.00;6028254;23;20037;-70
2022/07/06 02:49:49;;;;;;;4.57;4.38;;;;;;;10.72;97.58;102159.44;6020233;23;20030;-67
2022/07/06 02:52:16;;;;;;;4.60;4.40;;;;;;;10.72;97.43;102183.06;6035136;23;20022;-67
2022/07/06 02:54:42;;;;;;;4.50;4.30;;;;;;;10.76;96.79;102168.06;6020641;23;20360;-66
2022/07/06 02:57:08;;;;;;;4.70;4.50;;;;;;;10.72;97.74;102172.56;6021650;23;20189;-68
2022/07/06 02:59:36;;;;;;;6.40;6.10;;;;;;;10.70;97.85;102205.84;6023249;23;20661;-68
2022/07/06 03:02:04;;;;;;;4.38;4.18;;;;;;;10.73;97.77;102184.75;6044714;23;20054;-68
2022/07/06 03:04:30;;;;;;;6.55;6.25;;;;;;;10.74;97.49;102194.38;6003059;23;20279;-67
2022/07/06 03:06:57;;;;;;;4.57;4.38;;;;;;;9.41;97.33;101952.38;6026861;23;20029;-68
2022/07/06 03:09:24;;;;;;;6.63;6.32;;;;;;;10.58;96.94;102148.44;6013477;23;20023;-67
2022/07/06 03:11:50;;;;;;;4.63;4.43;;;;;;;10.52;97.51;102143.38;6027038;23;20023;-68
2022/07/06 03:14:17;;;;;;;4.40;4.20;;;;;;;10.79;97.15;102194.25;6018633;23;20029;-68
2022/07/06 03:16:43;;;;;;;4.60;4.40;;;;;;;10.80;97.38;102192.47;6034160;23;20036;-68
2022/07/06 03:19:16;;;;;;;4.30;4.10;;;;;;;10.82;97.37;102207.25;6014442;23;20629;-68
2022/07/06 03:21:42;;;;;;;4.38;4.18;;;;;;;10.81;97.01;102191.56;6020314;23;21366;-66
2022/07/06 03:24:09;;;;;;;4.30;4.10;;;;;;;10.81;96.49;102189.81;6021667;23;20022;-68
2022/07/06 03:26:35;;;;;;;6.07;5.78;;;;;;;10.63;96.56;102167.56;5992559;23;20066;-68
2022/07/06 03:29:02;;;;;;;4.80;4.60;;;;;;;10.80;97.44;102195.09;6026143;23;20718;-69
2022/07/06 03:31:28;;;;;;;6.20;5.90;;;;;;;10.80;97.72;102214.31;6019441;23;20034;-68
2022/07/06 03:33:55;;;;;;;4.38;4.18;;;;;;;10.77;97.85;102207.41;6022701;23;20011;-67
2022/07/06 03:36:21;;;;;;;5.18;4.95;;;;;;;10.81;97.00;102196.81;6017848;23;20019;-67
2022/07/06 03:38:48;;;;;;;4.53;4.32;;;;;;;10.75;97.07;102203.97;6006298;23;20023;-68
2022/07/06 03:41:14;;;;;;;4.40;4.20;;;;;;;10.43;97.39;102133.16;6031503;23;20398;-68
2022/07/06 03:43:41;;;;;;;4.50;4.30;;;;;;;10.75;97.43;102192.59;6010071;23;20040;-67
2022/07/06 03:46:08;;;;;;;4.63;4.43;;;;;;;10.59;97.96;102181.69;6020251;23;20025;-70
2022/07/06 03:48:34;;;;;;;5.82;5.57;;;;;;;10.73;98.38;102199.66;6001988;23;20039;-69
2022/07/06 03:51:01;;;;;;;4.82;4.63;;;;;;;10.80;97.84;102192.47;6027026;23;20042;-69
2022/07/06 03:53:27;;;;;;;5.90;5.63;;;;;;;10.82;97.52;102207.25;6049789;23;20451;-70
2022/07/06 03:58:38;;;;;;;4.50;4.30;;;;;;;10.88;96.70;102208.84;6023240;23;20019;-70
2022/07/06 04:01:05;;;;;;;4.30;4.10;;;;;;;10.93;97.04;102220.09;6029143;23;20027;-70
2022/07/06 04:03:31;;;;;;;5.90;5.63;;;;;;;10.86;97.28;102205.41;6021804;23;20381;-70
2022/07/06 04:05:59;;;;;;;4.38;4.18;;;;;;;10.83;95.56;102174.84;6015811;23;20551;-70
2022/07/06 04:08:26;;;;;;;6.53;6.22;;;;;;;11.13;95.84;102214.25;6027125;23;20487;-71
2022/07/06 04:10:52;;;;;;;4.35;4.15;;;;;;;11.04;94.57;102183.00;6028128;23;20355;-70
2022/07/06 04:13:19;;;;;;;4.32;4.13;;;;;;;11.09;95.18;102197.72;6030707;23;20030;-70
2022/07/06 04:15:45;;;;;;;4.50;4.30;;;;;;;11.76;94.27;102238.56;6028358;23;20098;-70
2022/07/06 04:18:12;;;;;;;5.07;4.72;;;;;;;12.85;90.24;102248.00;6031154;23;20037;-69
2022/07/06 04:20:39;;;;;;;4.63;4.43;;;;;;;12.31;84.08;102013.00;6028363;23;20023;-70
2022/07/06 04:23:05;;;;;;;4.70;4.50;;;;;;;14.55;79.44;102260.53;6004167;23;20064;-70
2022/07/06 04:25:32;;;;;;;6.15;5.85;;;;;;;14.88;75.73;102252.94;6023484;23;20506;-70
2022/07/06 04:27:58;;;;;;;4.88;4.68;;;;;;;15.00;73.87;102255.94;6028687;23;20195;-70
2022/07/06 04:30:25;;;;;;;6.07;5.78;;;;;;;14.70;71.65;102222.03;6030252;23;20171;-70
2022/07/06 04:32:51;;;;;;;4.82;4.63;;;;;;;14.97;71.81;102235.78;6025632;23;20033;-70
2022/07/06 04:35:18;;;;;;;4.97;4.78;;;;;;;15.77;70.19;102269.06;6031635;23;20015;-70
2022/07/06 04:37:45;;;;;;;5.40;5.00;;;;;;;16.19;68.22;102270.50;6030422;23;20054;-70
2022/07/06 04:40:13;;;;;;;4.80;4.60;;;;;;;16.31;67.51;102230.13;6040957;23;20019;-70
2022/07/06 04:42:44;;;;;;;5.32;5.10;;;;;;;16.93;64.95;102288.75;6021489;23;20070;-70
2022/07/06 04:45:11;;;;;;;4.85;4.65;;;;;;;17.59;63.46;102291.38;6039186;23;20050;-70
2022/07/06 04:47:37;;;;;;;5.40;5.20;;;;;;;17.67;59.33;102704.22;6029784;23;20019;-70
2022/07/06 04:50:04;;;;;;;5.20;5.00;;;;;;;18.02;58.55;102432.41;6030716;23;20035;-70
2022/07/06 04:52:31;;;;;;;5.20;5.00;;;;;;;18.39;56.33;102342.59;6005837;23;20293;-71
2022/07/06 04:54:58;;;;;;;5.60;5.25;;;;;;;19.00;54.72;102420.53;6020403;23;20041;-71
2022/07/06 04:57:29;;;;;;;5.28;5.07;;;;;;;18.06;56.77;102373.72;6001139;23;20027;-70
2022/07/06 04:59:56;;;;;;;5.72;5.43;;;;;;;16.90;59.61;102333.16;6021906;23;20018;-70
2022/07/06 05:02:23;;;;;;;6.40;6.10;;;;;;;16.70;62.11;102372.13;6025540;23;20026;-70
2022/07/06 05:04:50;;;;;;;5.47;5.20;;;;;;;16.24;64.52;102347.97;6001514;23;20015;-71
2022/07/06 05:07:17;;;;;;;5.10;4.90;;;;;;;16.67;64.60;102393.47;6007595;23;20054;-71
2022/07/06 05:09:43;;;;;;;5.13;4.93;;;;;;;16.26;65.33;102383.19;6001324;23;20038;-70
2022/07/06 05:12:17;;;;;;;5.45;5.15;;;;;;;16.25;66.50;102394.69;6001720;23;20588;-70
2022/07/06 05:14:43;;;;;;;5.03;4.82;;;;;;;16.73;65.60;102393.16;5999961;23;20335;-71
2022/07/06 05:17:09;;;;;;;5.25;4.95;;;;;;;16.88;64.71;102348.28;5997255;23;20025;-71
2022/07/06 05:19:36;;;;;;;5.40;5.10;;;;;;;16.51;64.73;102267.97;6002944;23;20090;-71
2022/07/06 05:22:03;;;;;;;5.10;4.90;;;;;;;16.21;66.56;102289.81;6004614;23;20595;-70
2022/07/06 05:24:29;;;;;;;5.00;4.80;;;;;;;15.45;69.62;102246.78;5999937;23;20095;-71
2022/07/06 05:26:56;;;;;;;5.20;5.00;;;;;;;15.64;70.45;102273.22;6009849;23;20101;-70
2022/07/06 05:29:22;;;;;;;5.22;4.95;;;;;;;14.90;72.52;102234.34;6004552;23;20040;-70
2022/07/06 05:31:50;;;;;;;5.00;4.80;;;;;;;15.08;71.98;102225.56;6005569;23;19999;-70
2022/07/06 05:34:16;;;;;;;4.93;4.72;;;;;;;15.39;71.59;102284.09;5998698;23;20119;-70
2022/07/06 05:36:43;;;;;;;5.10;4.90;;;;;;;15.27;71.41;102254.63;6010387;23;20199;-70
2022/07/06 05:39:10;;;;;;;5.20;4.90;;;;;;;15.44;70.57;102247.72;6004361;23;20195;-70
2022/07/06 05:41:36;;;;;;;5.03;4.82;;;;;;;16.17;69.60;102285.59;6001852;23;20025;-70
2022/07/06 05:44:03;;;;;;;5.32;5.03;;;;;;;16.28;67.85;102277.13;6016130;23;20042;-71
2022/07/06 05:46:29;;;;;;;4.80;4.60;;;;;;;16.43;67.61;102278.97;6009448;23;20094;-71
2022/07/06 05:51:41;;;;;;;5.10;4.80;;;;;;;16.15;67.98;102274.22;6003948;23;20492;-69
2022/07/06 05:54:07;;;;;;;5.13;4.93;;;;;;;15.70;68.54;102257.88;6000266;23;20099;-70
2022/07/06 05:56:34;;;;;;;6.53;6.22;;;;;;;15.79;68.61;102272.47;6002574;23;20026;-69
2022/07/06 05:59:00;;;;;;;4.90;4.70;;;;;;;16.12;69.22;102266.47;6001326;23;20098;-70
2022/07/06 06:01:27;;;;;;;5.00;4.80;;;;;;;17.21;66.18;102270.47;5995192;23;20233;-70
2022/07/06 06:03:53;;;;;;;4.90;4.70;;;;;;;18.72;60.52;102305.13;6008727;23;20026;-70
2022/07/06 06:06:20;;;;;;;6.20;5.90;;;;;;;19.25;56.78;102308.13;6027172;23;20017;-70
2022/07/06 06:08:46;;;;;;;5.10;4.90;;;;;;;20.23;55.83;102304.41;6011081;23;20022;-70
2022/07/06 06:11:13;;;;;;;6.35;6.05;;;;;;;20.17;52.37;102267.50;6002776;23;20036;-70
2022/07/06 06:13:39;;;;;;;6.18;5.88;;;;;;;20.65;50.91;102299.78;6019203;23;20026;-71
2022/07/06 06:16:06;;;;;;;5.20;5.00;;;;;;;20.39;50.62;102568.22;6028489;23;21087;-71
2022/07/06 06:18:32;;;;;;;6.68;6.38;;;;;;;20.86;51.19;102555.41;6015983;23;20027;-71
2022/07/06 06:21:07;;;;;;;5.78;5.38;;;;;;;21.67;48.84;102830.50;6027200;23;20007;-70
2022/07/06 06:23:33;;;;;;;6.72;6.43;;;;;;;22.73;44.87;103397.19;6017071;23;20502;-71
2022/07/06 06:25:59;;;;;;;6.10;5.70;;;;;;;22.93;45.97;102903.22;6027764;23;20037;-70
2022/07/06 06:28:26;;;;;;;6.65;6.35;;;;;;;22.34;45.26;102324.06;6017887;23;20097;-70
2022/07/06 06:30:53;;;;;;;5.80;5.50;;;;;;;21.39;47.94;102510.88;5998033;23;20295;-70
2022/07/06 06:33:21;;;;;;;5.80;5.50;;;;;;;20.12;51.67;102409.06;6023893;23;20187;-70
2022/07/06 06:35:49;;;;;;;5.70;5.40;;;;;;;19.64;53.74;102674.06;5983497;23;20042;-72
2022/07/06 06:38:16;;;;;;;5.20;5.00;;;;;;;19.68;54.59;102742.19;6028360;23;20063;-70
2022/07/06 06:40:43;;;;;;;5.50;5.30;;;;;;;19.28;54.98;102661.97;6006266;23;20053;-71
2022/07/06 06:43:09;;;;;;;5.80;5.50;;;;;;;18.83;57.21;102730.16;6029507;23;20023;-70
2022/07/06 06:45:36;;;;;;;5.50;5.20;;;;;;;18.15;59.40;102643.34;6026122;23;20294;-71
2022/07/06 06:48:03;;;;;;;5.40;5.20;;;;;;;18.16;60.20;102799.19;6027000;23;20121;-71
2022/07/06 06:50:29;;;;;;;7.10;6.80;;;;;;;16.90;59.08;102519.66;6021907;23;20209;-70
2022/07/06 06:52:56;;;;;;;5.75;5.45;;;;;;;18.68;58.81;102650.22;6020787;23;20022;-70
2022/07/06 06:55:23;;;;;;;5.63;5.32;;;;;;;18.29;59.22;102533.66;6027808;23;20449;-70
2022/07/06 06:57:49;;;;;;;5.40;5.20;;;;;;;18.31;60.19;102436.06;6023661;23;20014;-70
2022/07/06 07:00:16;;;;;;;5.75;5.45;;;;;;;18.32;59.86;102368.66;6018827;23;20421;-70
2022/07/06 07:02:43;;;;;;;6.13;5.60;;;;;;;18.53;58.92;102353.28;6020397;23;20500;-71
2022/07/06 07:05:09;;;;;;;5.50;5.30;;;;;;;18.47;58.54;102348.31;6022597;23;20572;-73
2022/07/06 07:07:36;;;;;;;6.85;6.45;;;;;;;18.48;59.08;102324.31;6022863;23;20183;-71
2022/07/06 07:10:04;;;;;;;5.47;5.20;;;;;;;18.01;60.17;102322.63;6028825;23;20021;-72
2022/07/06 07:12:31;;;;;;;5.50;5.20;;;;;;;18.21;59.46;102310.00;6013127;23;20031;-72
2022/07/06 07:14:57;;;;;;;5.40;5.20;;;;;;;18.45;59.70;102316.50;5995723;23;20057;-72
2022/07/06 07:17:24;;;;;;;6.88;6.57;;;;;;;18.17;60.28;102260.63;6019639;23;20017;-67
2022/07/06 07:19:51;;;;;;;5.50;5.30;;;;;;;17.92;61.66;102281.53;6003247;23;20630;-71
2022/07/06 07:22:17;;;;;;;5.88;5.35;;;;;;;18.40;62.23;102321.25;6003936;23;20035;-72
2022/07/06 07:24:44;;;;;;;5.30;5.10;;;;;;;18.60;60.33;102292.59;6022334;23;20027;-71
2022/07/06 07:27:10;;;;;;;5.43;5.22;;;;;;;18.86;59.30;102323.81;6021564;23;20011;-72
2022/07/06 07:29:36;;;;;;;6.63;6.32;;;;;;;18.61;59.10;102294.31;5997438;23;20242;-72
2022/07/06 07:32:03;;;;;;;5.15;4.95;;;;;;;18.56;57.82;102253.84;6015629;23;20014;-71
2022/07/06 07:34:30;;;;;;;6.88;6.57;;;;;;;18.76;58.84;102321.78;6017738;23;20124;-71
2022/07/06 07:36:56;;;;;;;5.38;5.18;;;;;;;19.09;57.34;102362.31;6016956;23;20023;-72
2022/07/06 07:39:22;;;;;;;6.00;5.70;;;;;;;19.03;56.61;102346.72;6023022;23;20015;-71
2022/07/06 07:41:50;;;;;;;5.10;4.90;;;;;;;18.71;56.43;102322.91;5998780;23;20026;-72
2022/07/06 07:44:17;;;;;;;5.20;5.00;;;;;;;18.54;58.05;102331.03;6021384;23;20031;-73
2022/07/06 07:46:43;;;;;;;5.30;5.10;;;;;;;18.63;57.17;102322.50;5995043;23;20072;-72
2022/07/06 07:49:10;;;;;;;5.80;5.50;;;;;;;18.85;56.72;102342.53;6022733;23;20034;-70
2022/07/06 07:51:39;;;;;;;6.20;5.90;;;;;;;18.97;55.64;102339.13;6019318;23;20159;-73
2022/07/06 07:54:05;;;;;;;5.30;5.10;;;;;;;18.10;58.29;102276.94;6021724;23;20031;-72
2022/07/06 07:56:32;;;;;;;6.95;6.65;;;;;;;18.72;57.11;102326.41;5990325;23;20043;-72
2022/07/06 07:58:58;;;;;;;5.57;5.30;;;;;;;18.48;57.06;102316.34;6024657;23;20353;-72
2022/07/06 08:01:25;;;;;;;6.88;6.57;;;;;;;17.66;57.83;102141.41;6018234;23;20026;-68
2022/07/06 08:03:51;;;;;;;5.28;5.07;;;;;;;18.91;56.81;102272.97;6042708;23;20019;-72
2022/07/06 08:06:18;;;;;;;5.22;5.03;;;;;;;20.08;54.37;102324.91;5982554;23;20031;-71
2022/07/06 08:08:44;;;;;;;5.32;5.13;;;;;;;20.06;51.91;102336.66;6019667;23;20031;-71
2022/07/06 08:11:11;;;;;;;5.22;5.03;;;;;;;19.90;52.62;102327.00;6003899;23;20018;-71
2022/07/06 08:13:44;;;;;;;5.40;5.20;;;;;;;20.10;52.71;102322.16;5987343;23;20031;-71
2022/07/06 08:16:11;;;;;;;5.75;5.45;;;;;;;19.67;52.43;102323.16;6003985;23;20003;-73
2022/07/06 08:18:37;;;;;;;5.20;5.00;;;;;;;19.89;53.45;102367.09;5994880;23;20075;-71
2022/07/06 08:21:05;;;;;;;5.60;5.30;;;;;;;20.00;51.97;102351.22;6001708;23;20022;-72
2022/07/06 08:23:49;;;;;;;5.30;5.10;;;;;;;19.13;52.55;102264.50;6002275;23;20013;-71
2022/07/06 08:26:16;;;;;;;5.15;4.95;;;;;;;19.63;50.57;102308.31;6001324;23;20018;-71
2022/07/06 08:28:43;;;;;;;5.50;5.30;;;;;;;19.18;51.24;102264.19;5971678;23;20016;-72
2022/07/06 08:31:10;;;;;;;5.07;4.88;;;;;;;18.85;51.93;102303.47;6005419;23;20014;-72
2022/07/06 08:33:56;;;;;;;5.30;5.10;;;;;;;18.75;52.32;102294.31;5999379;23;20027;-71
2022/07/06 08:36:23;;;;;;;6.32;6.03;;;;;;;18.99;53.22;102281.34;5999379;23;20106;-71
2022/07/06 08:38:51;;;;;;;5.20;5.00;;;;;;;19.44;51.56;102307.78;6061394;23;20574;-71
2022/07/06 08:41:21;;;;;;;4.93;4.72;;;;;;;19.33;51.58;102268.56;6004405;23;20083;-71
2022/07/06 08:43:53;;;;;;;5.18;4.97;;;;;;;19.34;49.79;102286.22;6009424;23;20034;-71
2022/07/06 08:46:21;;;;;;;5.22;5.03;;;;;;;19.32;50.00;102304.09;6003417;23;20034;-72
2022/07/06 08:48:49;;;;;;;5.50;5.30;;;;;;;19.03;51.41;102279.34;6003551;23;20062;-71
2022/07/06 08:51:16;;;;;;;5.20;5.00;;;;;;;19.04;52.63;102283.69;5995745;23;20038;-71
2022/07/06 08:53:44;;;;;;;5.30;5.10;;;;;;;19.22;52.08;102287.84;6001821;23;20075;-71
2022/07/06 08:56:11;;;;;;;5.10;4.90;;;;;;;19.63;51.41;102295.00;6002558;23;20496;-71
2022/07/06 08:58:41;;;;;;;5.80;5.50;;;;;;;19.48;49.63;102235.63;5967202;23;20528;-71
2022/07/06 09:01:11;;;;;;;5.07;4.88;;;;;;;19.99;49.39;102288.25;6003086;23;20015;-70
2022/07/06 09:03:41;;;;;;;5.70;5.50;;;;;;;19.82;49.06;102264.53;5988169;23;20020;-72
2022/07/06 09:06:08;;;;;;;5.13;4.93;;;;;;;19.79;48.87;102289.56;5997222;23;20043;-72
2022/07/06 09:08:38;;;;;;;5.22;5.03;;;;;;;19.70;49.10;102288.34;5987151;23;20695;-71
2022/07/06 09:11:05;;;;;;;5.10;4.90;;;;;;;19.58;51.51;102280.28;5996228;23;20057;-71
2022/07/06 09:13:31;;;;;;;6.57;6.28;;;;;;;19.21;53.00;102226.75;5995418;23;20025;-71
2022/07/06 09:16:12;;;;;;;5.50;5.10;;;;;;;19.11;51.73;102163.47;5966473;23;20032;-70
2022/07/06 09:18:59;;;;;;;5.47;5.20;;;;;;;20.15;50.73;102431.16;5993882;23;20501;-71
2022/07/06 09:21:32;;;;;;;6.40;6.10;;;;;;;20.49;50.06;102456.47;5975158;23;20047;-72
2022/07/06 09:24:04;;;;;;;5.70;5.30;;;;;;;20.45;50.51;102452.28;5992832;23;20440;-69
2022/07/06 09:26:31;;;;;;;7.85;7.45;;;;;;;20.47;49.94;102437.03;5995230;23;20027;-71
2022/07/06 09:28:59;;;;;;;5.68;5.40;;;;;;;19.68;50.48;102300.03;5971766;23;20112;-70
2022/07/06 09:31:25;;;;;;;7.40;7.05;;;;;;;20.03;50.38;102335.06;5992011;23;20026;-70
2022/07/06 09:34:10;;;;;;;5.50;5.30;;;;;;;19.97;51.23;102324.78;5976437;23;20063;-70
2022/07/06 09:36:44;;;;;;;6.32;6.03;;;;;;;20.22;50.73;102304.50;5987357;23;20011;-70
2022/07/06 09:39:21;;;;;;;5.50;5.30;;;;;;;20.33;50.57;102300.13;5999569;23;20681;-70
2022/07/06 09:41:57;;;;;;;5.20;5.00;;;;;;;20.71;50.44;102288.69;5973036;23;20016;-70
2022/07/06 09:44:31;;;;;;;7.43;6.93;;;;;;;20.64;47.68;102279.38;5989496;23;20437;-69
2022/07/06 09:47:00;;;;;;;5.20;5.00;;;;;;;20.77;48.17;102271.38;6000786;23;20019;-70
2022/07/06 09:49:26;;;;;;;6.03;5.72;;;;;;;20.55;47.40;102247.13;5991122;23;20027;-70
2022/07/06 09:51:59;;;;;;;5.20;5.00;;;;;;;20.66;47.64;102265.94;5996871;23;20022;-71
2022/07/06 09:54:26;;;;;;;6.53;6.22;;;;;;;20.28;47.69;102240.94;5992483;23;20420;-71
2022/07/06 09:56:53;;;;;;;5.28;5.07;;;;;;;20.10;48.25;102251.03;5988882;23;20102;-71
2022/07/06 09:59:22;;;;;;;5.35;5.15;;;;;;;20.46;49.54;102260.13;5996700;23;20099;-72
2022/07/06 10:01:54;;;;;;;5.18;4.97;;;;;;;20.15;47.19;102250.75;5994748;23;20019;-71
2022/07/06 10:04:22;;;;;;;5.38;5.18;;;;;;;20.29;44.94;102263.13;5978804;23;20023;-71
2022/07/06 10:06:49;;;;;;;5.55;5.25;;;;;;;19.51;45.00;102214.09;6018408;23;20532;-71
2022/07/06 10:09:18;;;;;;;5.68;5.47;;;;;;;19.97;43.42;102276.84;6025327;23;20030;-71
2022/07/06 10:11:52;;;;;;;5.32;5.13;;;;;;;19.85;43.49;102254.53;6023671;23;20021;-71
2022/07/06 10:14:27;;;;;;;5.40;5.10;;;;;;;19.84;44.04;102234.16;6027227;23;20093;-70
2022/07/06 10:16:58;;;;;;;5.43;5.13;;;;;;;20.25;45.38;102214.50;6025804;23;20110;-71
2022/07/06 10:19:26;;;;;;;6.18;5.88;;;;;;;20.77;44.69;102273.19;5996550;23;20045;-71
2022/07/06 10:21:53;;;;;;;5.35;5.15;;;;;;;20.87;44.05;102271.59;6021155;23;20062;-70
2022/07/06 10:24:20;;;;;;;5.47;5.25;;;;;;;21.41;43.51;102270.38;6020859;23;20366;-70
2022/07/06 10:26:48;;;;;;;5.30;5.10;;;;;;;21.62;41.55;102278.66;6022294;23;20011;-71
2022/07/06 10:29:15;;;;;;;5.20;5.00;;;;;;;20.90;41.36;102253.53;6026835;23;20011;-71
2022/07/06 10:31:45;;;;;;;5.30;5.10;;;;;;;21.20;42.90;102251.44;6017991;23;20097;-71
2022/07/06 10:34:14;;;;;;;5.90;5.60;;;;;;;20.63;43.21;102202.16;6023319;23;20022;-71
2022/07/06 10:36:42;;;;;;;6.00;5.70;;;;;;;21.19;43.24;102415.25;6017287;23;20034;-71
2022/07/06 10:41:55;;;;;;;5.43;5.22;;;;;;;21.41;41.27;102468.03;6025408;23;20517;-72
2022/07/06 10:44:27;;;;;;;5.93;5.65;;;;;;;21.31;40.79;102446.47;6017754;23;20035;-72
2022/07/06 10:46:55;;;;;;;5.70;5.50;;;;;;;21.87;41.88;102396.16;6024290;23;20022;-73
2022/07/06 10:49:24;;;;;;;5.97;5.68;;;;;;;22.23;39.92;102330.22;6018135;23;20549;-72
2022/07/06 10:52:10;;;;;;;5.28;5.07;;;;;;;22.00;39.53;102253.56;6019089;23;20532;-72
2022/07/06 10:54:40;;;;;;;5.47;5.28;;;;;;;21.82;39.14;102234.41;6025252;23;20110;-72
2022/07/06 10:57:15;;;;;;;5.40;5.20;;;;;;;22.23;38.75;102274.06;6018361;23;20045;-72
2022/07/06 11:00:00;;;;;;;5.57;5.38;;;;;;;22.19;39.66;102256.53;6019294;23;20015;-71
2022/07/06 11:02:37;;;;;;;6.78;6.47;;;;;;;22.17;40.22;102221.03;6018972;23;20050;-72
2022/07/06 11:05:10;;;;;;;5.43;5.22;;;;;;;22.76;39.39;102245.94;5997582;23;20015;-72
2022/07/06 11:07:49;;;;;;;5.50;5.30;;;;;;;22.78;40.09;102217.22;6030115;23;20027;-71
2022/07/06 11:10:15;;;;;;;5.40;5.20;;;;;;;22.30;38.61;102226.31;5996667;23;20031;-71
2022/07/06 11:12:44;;;;;;;5.30;5.10;;;;;;;22.27;41.07;102234.56;6033194;23;20057;-71
2022/07/06 11:15:11;;;;;;;5.60;5.30;;;;;;;22.46;40.65;102217.94;6013494;23;20770;-71
2022/07/06 11:17:37;;;;;;;5.70;5.40;;;;;;;22.63;39.94;102238.88;5992748;23;20039;-71
2022/07/06 11:20:11;;;;;;;5.25;5.03;;;;;;;23.13;38.50;102278.66;6030610;23;20022;-71
2022/07/06 11:22:40;;;;;;;5.50;5.30;;;;;;;23.48;38.92;102291.03;6001598;23;20031;-71
2022/07/06 11:25:07;;;;;;;5.60;5.30;;;;;;;23.52;37.44;102299.66;6033984;23;20022;-71
2022/07/06 11:27:37;;;;;;;7.03;6.68;;;;;;;23.90;38.14;102253.63;6005081;23;20591;-71
2022/07/06 11:30:06;;;;;;;5.50;5.20;;;;;;;23.60;37.08;102243.59;6027762;23;20020;-72
2022/07/06 11:32:35;;;;;;;5.35;5.15;;;;;;;22.42;38.03;102233.38;6002715;23;20030;-72
2022/07/06 11:35:02;;;;;;;5.63;5.35;;;;;;;22.01;37.33;102183.94;6019144;23;20026;-71
2022/07/06 11:37:28;;;;;;;7.10;6.80;;;;;;;22.35;37.82;102225.94;6013948;23;20037;-71